createdAt,value
2023-05-06T00:01:20.651Z,90.53
2023-05-06T00:02:23.859Z,90.52
2023-05-06T00:04:00.058Z,90.52
2023-05-06T00:05:03.653Z,90.55
2023-05-06T00:06:07.118Z,90.54
2023-05-06T00:07:41.903Z,90.54
2023-05-06T00:08:45.071Z,90.61
2023-05-06T00:09:48.073Z,90.58
2023-05-06T00:11:22.729Z,90.56
2023-05-06T00:12:25.517Z,90.52
2023-05-06T00:13:28.664Z,90.49
2023-05-06T00:15:03.561Z,90.47
2023-05-06T00:16:06.900Z,90.46
2023-05-06T00:17:10.012Z,90.48
2023-05-06T00:18:44.691Z,90.60
2023-05-06T00:19:47.626Z,90.62
2023-05-06T00:20:50.838Z,90.56
2023-05-06T00:22:25.818Z,90.54
2023-05-06T00:23:28.859Z,90.56
2023-05-06T00:24:31.809Z,90.54
2023-05-06T00:26:07.088Z,90.50
2023-05-06T00:27:10.146Z,90.49
2023-05-06T00:28:13.351Z,90.63
2023-05-06T00:29:48.208Z,90.68
2023-05-06T00:30:51.081Z,90.75
2023-05-06T00:31:53.966Z,90.80
2023-05-06T00:33:29.627Z,90.78
2023-05-06T00:34:32.796Z,90.83
2023-05-06T00:35:35.843Z,90.82
2023-05-06T00:37:10.690Z,90.89
2023-05-06T00:38:13.807Z,90.88
2023-05-06T00:39:16.995Z,90.85
2023-05-06T00:40:51.816Z,90.85
2023-05-06T00:41:54.808Z,90.84
2023-05-06T00:42:57.768Z,90.81
2023-05-06T00:44:33.041Z,90.78
2023-05-06T00:45:36.019Z,90.79
2023-05-06T00:46:39.383Z,90.76
2023-05-06T00:48:14.336Z,90.78
2023-05-06T00:49:17.298Z,90.79
2023-05-06T00:50:20.410Z,90.87
2023-05-06T00:51:55.406Z,91.01
2023-05-06T00:52:58.380Z,90.98
2023-05-06T00:54:01.467Z,91.02
2023-05-06T00:55:36.648Z,91.15
2023-05-06T00:56:39.668Z,91.13
2023-05-06T00:57:42.624Z,91.20
2023-05-06T00:59:17.375Z,91.28
2023-05-06T01:00:18.377Z,91.24
2023-05-06T01:01:21.654Z,91.26
2023-05-06T01:02:33.240Z,91.24
2023-05-06T01:04:18.422Z,91.31
2023-05-06T01:05:22.399Z,91.27
2023-05-06T01:06:25.534Z,91.33
2023-05-06T01:08:00.304Z,91.41
2023-05-06T01:09:03.300Z,91.48
2023-05-06T01:10:06.301Z,91.47
2023-05-06T01:11:41.041Z,91.47
2023-05-06T01:12:44.162Z,91.51
2023-05-06T01:13:47.527Z,91.51
2023-05-06T01:16:25.548Z,91.59
2023-05-06T01:17:28.769Z,91.63
2023-05-06T01:19:03.896Z,91.66
2023-05-06T01:20:06.725Z,91.69
2023-05-06T01:21:09.720Z,91.76
2023-05-06T01:22:44.541Z,91.78
2023-05-06T01:23:47.611Z,91.76
2023-05-06T01:24:50.471Z,91.75
2023-05-06T01:26:25.741Z,91.75
2023-05-06T01:27:28.729Z,91.82
2023-05-06T01:28:31.734Z,91.77
2023-05-06T01:30:07.047Z,91.82
2023-05-06T01:31:10.080Z,91.93
2023-05-06T01:32:13.545Z,91.84
2023-05-06T01:33:48.782Z,91.94
2023-05-06T01:34:51.617Z,92.01
2023-05-06T01:35:55.161Z,92.10
2023-05-06T01:37:30.177Z,92.05
2023-05-06T01:38:33.268Z,92.08
2023-05-06T01:39:36.355Z,92.14
2023-05-06T01:41:11.135Z,92.21
2023-05-06T01:42:14.091Z,92.37
2023-05-06T01:43:17.087Z,92.39
2023-05-06T01:44:52.184Z,92.44
2023-05-06T01:45:55.805Z,92.54
2023-05-06T01:46:59.131Z,92.48
2023-05-06T01:48:34.307Z,92.54
2023-05-06T01:49:37.289Z,92.50
2023-05-06T01:50:40.734Z,92.50
2023-05-06T01:52:16.005Z,92.50
2023-05-06T01:53:19.174Z,92.50
2023-05-06T01:54:22.036Z,92.54
2023-05-06T01:55:56.867Z,92.57
2023-05-06T01:56:59.861Z,92.59
2023-05-06T01:58:02.726Z,92.60
2023-05-06T01:59:37.407Z,92.60
2023-05-06T02:01:20.849Z,92.58
2023-05-06T02:02:24.112Z,92.61
2023-05-06T02:04:01.176Z,92.56
2023-05-06T02:05:04.813Z,92.55
2023-05-06T02:06:08.209Z,92.52
2023-05-06T02:07:43.216Z,92.42
2023-05-06T02:08:46.576Z,92.50
2023-05-06T02:09:49.753Z,92.46
2023-05-06T02:11:24.573Z,92.47
2023-05-06T02:12:27.611Z,92.50
2023-05-06T02:13:30.784Z,92.44
2023-05-06T02:15:05.498Z,92.47
2023-05-06T02:16:08.904Z,92.48
2023-05-06T02:17:12.516Z,92.48
2023-05-06T02:18:47.503Z,92.47
2023-05-06T02:19:50.386Z,92.51
2023-05-06T02:20:53.456Z,92.46
2023-05-06T02:22:28.305Z,92.47
2023-05-06T02:23:31.221Z,92.48
2023-05-06T02:24:34.370Z,92.47
2023-05-06T02:26:09.291Z,92.47
2023-05-06T02:27:12.133Z,92.50
2023-05-06T02:28:15.237Z,92.53
2023-05-06T02:29:49.942Z,92.49
2023-05-06T02:30:52.944Z,92.51
2023-05-06T02:31:56.129Z,92.59
2023-05-06T02:33:31.076Z,92.69
2023-05-06T02:34:34.075Z,92.73
2023-05-06T02:35:37.097Z,92.70
2023-05-06T02:37:12.027Z,92.75
2023-05-06T02:38:15.278Z,92.70
2023-05-06T02:39:18.615Z,92.88
2023-05-06T02:40:53.622Z,92.96
2023-05-06T02:41:56.635Z,93.44
2023-05-06T02:42:59.847Z,93.22
2023-05-06T02:44:35.126Z,93.24
2023-05-06T02:45:38.139Z,93.35
2023-05-06T02:46:41.244Z,93.20
2023-05-06T02:48:15.980Z,93.20
2023-05-06T02:49:18.950Z,93.16
2023-05-06T02:50:22.151Z,93.14
2023-05-06T02:51:56.933Z,93.16
2023-05-06T02:52:59.956Z,93.24
2023-05-06T02:54:03.131Z,93.28
2023-05-06T02:55:38.312Z,93.47
2023-05-06T02:56:41.357Z,93.55
2023-05-06T02:57:44.547Z,93.47
2023-05-06T02:59:19.376Z,93.51
2023-05-06T03:00:17.521Z,93.49
2023-05-06T03:01:20.383Z,93.52
2023-05-06T03:02:23.418Z,93.54
2023-05-06T03:03:58.523Z,93.55
2023-05-06T03:05:01.583Z,93.54
2023-05-06T03:06:04.743Z,93.67
2023-05-06T03:07:39.872Z,93.57
2023-05-06T03:08:42.989Z,93.61
2023-05-06T03:09:46.278Z,93.63
2023-05-06T03:11:21.072Z,93.59
2023-05-06T03:12:24.376Z,93.64
2023-05-06T03:13:27.584Z,93.71
2023-05-06T03:15:02.573Z,93.72
2023-05-06T03:16:05.822Z,93.74
2023-05-06T03:17:09.201Z,93.84
2023-05-06T03:18:43.894Z,93.87
2023-05-06T03:19:46.874Z,93.80
2023-05-06T03:20:49.791Z,93.79
2023-05-06T03:22:24.917Z,93.84
2023-05-06T03:23:27.923Z,93.90
2023-05-06T03:24:30.931Z,93.86
2023-05-06T03:26:05.929Z,93.98
2023-05-06T03:27:09.053Z,93.94
2023-05-06T03:28:12.074Z,93.86
2023-05-06T03:29:47.225Z,93.95
2023-05-06T03:30:50.342Z,93.94
2023-05-06T03:31:53.576Z,94.00
2023-05-06T03:33:29.161Z,94.00
2023-05-06T03:34:32.175Z,93.94
2023-05-06T03:35:35.055Z,93.97
2023-05-06T03:37:10.045Z,94.01
2023-05-06T03:38:13.016Z,93.99
2023-05-06T03:39:16.105Z,93.98
2023-05-06T03:40:50.856Z,93.94
2023-05-06T03:41:53.698Z,93.95
2023-05-06T03:42:59.411Z,93.88
2023-05-06T03:44:34.610Z,93.84
2023-05-06T03:45:37.562Z,93.81
2023-05-06T03:46:41.058Z,93.79
2023-05-06T03:48:16.594Z,93.64
2023-05-06T03:49:19.715Z,93.63
2023-05-06T03:50:22.844Z,93.64
2023-05-06T03:51:57.458Z,93.57
2023-05-06T03:53:00.533Z,93.58
2023-05-06T03:54:03.373Z,93.42
2023-05-06T03:55:37.968Z,93.40
2023-05-06T03:56:40.823Z,93.52
2023-05-06T03:57:43.704Z,93.43
2023-05-06T03:59:18.654Z,93.55
2023-05-06T04:00:18.076Z,93.72
2023-05-06T04:01:21.124Z,93.66
2023-05-06T04:02:24.387Z,93.70
2023-05-06T04:04:00.543Z,93.76
2023-05-06T04:05:47.825Z,93.78
2023-05-06T04:06:50.974Z,93.83
2023-05-06T04:07:54.162Z,93.86
2023-05-06T04:09:29.290Z,93.80
2023-05-06T04:10:32.250Z,93.75
2023-05-06T04:11:35.703Z,93.87
2023-05-06T04:13:10.792Z,93.79
2023-05-06T04:14:14.334Z,93.84
2023-05-06T04:15:17.953Z,93.75
2023-05-06T04:16:52.812Z,93.69
2023-05-06T04:17:55.896Z,93.67
2023-05-06T04:18:58.979Z,93.69
2023-05-06T04:20:36.277Z,93.67
2023-05-06T04:21:39.156Z,93.64
2023-05-06T04:22:42.240Z,93.59
2023-05-06T04:24:17.628Z,93.61
2023-05-06T04:25:20.703Z,93.58
2023-05-06T04:26:23.840Z,93.58
2023-05-06T04:27:58.402Z,93.58
2023-05-06T04:29:01.361Z,93.58
2023-05-06T04:30:04.505Z,93.52
2023-05-06T04:31:39.271Z,93.53
2023-05-06T04:32:42.903Z,93.39
2023-05-06T04:33:46.007Z,93.28
2023-05-06T04:35:20.645Z,93.29
2023-05-06T04:36:23.501Z,93.24
2023-05-06T04:37:27.104Z,93.24
2023-05-06T04:39:01.622Z,93.29
2023-05-06T04:40:04.464Z,93.19
2023-05-06T04:41:07.382Z,93.20
2023-05-06T04:42:42.440Z,93.26
2023-05-06T04:43:45.519Z,93.26
2023-05-06T04:44:48.453Z,93.31
2023-05-06T04:46:23.962Z,93.29
2023-05-06T04:47:27.051Z,93.37
2023-05-06T04:48:30.490Z,93.40
2023-05-06T04:50:05.218Z,93.42
2023-05-06T04:51:08.073Z,93.41
2023-05-06T04:52:10.913Z,93.50
2023-05-06T04:53:45.592Z,93.54
2023-05-06T04:54:51.223Z,93.55
2023-05-06T04:55:54.340Z,93.64
2023-05-06T04:57:28.982Z,93.65
2023-05-06T04:58:32.045Z,93.64
2023-05-06T04:59:35.081Z,93.72
2023-05-06T05:01:21.197Z,93.80
2023-05-06T05:02:24.710Z,93.72
2023-05-06T05:04:00.769Z,93.79
2023-05-06T05:05:03.649Z,93.85
2023-05-06T05:06:06.928Z,93.82
2023-05-06T05:07:41.732Z,93.90
2023-05-06T05:08:44.697Z,93.82
2023-05-06T05:09:47.476Z,93.88
2023-05-06T05:11:22.208Z,94.05
2023-05-06T05:12:25.015Z,94.01
2023-05-06T05:13:28.255Z,94.02
2023-05-06T05:15:02.916Z,94.02
2023-05-06T05:16:06.654Z,93.95
2023-05-06T05:17:10.090Z,94.01
2023-05-06T05:18:45.239Z,93.90
2023-05-06T05:19:50.273Z,93.91
2023-05-06T05:20:53.250Z,93.98
2023-05-06T05:22:28.377Z,93.96
2023-05-06T05:23:31.273Z,93.99
2023-05-06T05:24:34.264Z,94.05
2023-05-06T05:26:08.838Z,93.98
2023-05-06T05:27:11.632Z,93.99
2023-05-06T05:28:14.502Z,94.01
2023-05-06T05:29:49.284Z,93.96
2023-05-06T05:30:52.348Z,93.85
2023-05-06T05:31:56.765Z,93.99
2023-05-06T05:33:31.577Z,94.10
2023-05-06T05:34:34.836Z,94.01
2023-05-06T05:35:37.838Z,94.06
2023-05-06T05:37:12.874Z,94.17
2023-05-06T05:38:15.786Z,94.15
2023-05-06T05:39:18.799Z,94.18
2023-05-06T05:40:53.584Z,94.12
2023-05-06T05:41:58.119Z,94.30
2023-05-06T05:43:01.082Z,94.18
2023-05-06T05:44:35.841Z,94.07
2023-05-06T05:45:38.802Z,94.13
2023-05-06T05:46:42.361Z,94.15
2023-05-06T05:48:17.592Z,94.23
2023-05-06T05:49:20.463Z,94.25
2023-05-06T05:50:23.562Z,94.30
2023-05-06T05:51:58.241Z,94.39
2023-05-06T05:53:01.383Z,94.35
2023-05-06T05:54:04.432Z,94.45
2023-05-06T05:55:39.325Z,94.45
2023-05-06T05:56:42.259Z,94.48
2023-05-06T05:57:45.274Z,94.55
2023-05-06T05:59:19.899Z,94.51
2023-05-06T06:00:17.828Z,94.69
2023-05-06T06:01:20.897Z,94.63
2023-05-06T06:02:23.968Z,94.71
2023-05-06T06:04:00.270Z,94.86
2023-05-06T06:05:03.947Z,94.77
2023-05-06T06:06:07.511Z,94.58
2023-05-06T06:07:42.683Z,94.49
2023-05-06T06:08:48.550Z,94.59
2023-05-06T06:09:51.910Z,94.72
2023-05-06T06:11:26.741Z,94.75
2023-05-06T06:12:29.811Z,94.71
2023-05-06T06:13:34.759Z,94.77
2023-05-06T06:15:09.706Z,94.68
2023-05-06T06:16:12.799Z,94.77
2023-05-06T06:17:16.077Z,94.67
2023-05-06T06:18:51.251Z,94.87
2023-05-06T06:19:54.288Z,94.83
2023-05-06T06:20:59.130Z,94.79
2023-05-06T06:22:33.902Z,94.86
2023-05-06T06:23:36.909Z,94.97
2023-05-06T06:24:39.925Z,95.12
2023-05-06T06:26:17.863Z,95.48
2023-05-06T06:27:21.000Z,95.40
2023-05-06T06:28:23.965Z,95.25
2023-05-06T06:29:58.431Z,95.38
2023-05-06T06:31:01.507Z,95.28
2023-05-06T06:32:04.888Z,95.33
2023-05-06T06:33:40.179Z,95.39
2023-05-06T06:34:43.286Z,95.33
2023-05-06T06:35:46.216Z,95.33
2023-05-06T06:37:20.965Z,95.42
2023-05-06T06:38:24.014Z,95.38
2023-05-06T06:39:26.987Z,95.26
2023-05-06T06:41:01.673Z,95.50
2023-05-06T06:42:04.550Z,95.34
2023-05-06T06:43:07.806Z,95.50
2023-05-06T06:44:42.596Z,95.53
2023-05-06T06:45:45.586Z,95.60
2023-05-06T06:46:48.851Z,95.69
2023-05-06T06:48:23.609Z,95.97
2023-05-06T06:49:26.490Z,95.87
2023-05-06T06:50:29.349Z,95.72
2023-05-06T06:52:04.048Z,95.36
2023-05-06T06:53:06.935Z,95.50
2023-05-06T06:54:09.965Z,95.58
2023-05-06T06:55:44.861Z,95.69
2023-05-06T06:56:47.877Z,95.77
2023-05-06T06:57:50.899Z,95.79
2023-05-06T06:59:25.822Z,95.10
2023-05-06T07:01:20.561Z,95.19
2023-05-06T07:02:24.237Z,95.20
2023-05-06T07:03:59.499Z,94.88
2023-05-06T07:05:04.867Z,94.80
2023-05-06T07:06:08.333Z,94.90
2023-05-06T07:07:42.774Z,95.05
2023-05-06T07:08:45.603Z,95.06
2023-05-06T07:09:48.559Z,95.07
2023-05-06T07:11:23.276Z,94.96
2023-05-06T07:12:26.274Z,94.91
2023-05-06T07:13:29.763Z,94.97
2023-05-06T07:15:04.849Z,94.77
2023-05-06T07:16:08.595Z,94.57
2023-05-06T07:17:12.108Z,94.38
2023-05-06T07:18:47.239Z,94.32
2023-05-06T07:19:50.111Z,93.73
2023-05-06T07:20:53.067Z,94.04
2023-05-06T07:22:28.054Z,94.13
2023-05-06T07:23:32.148Z,94.14
2023-05-06T07:24:35.347Z,94.35
2023-05-06T07:26:10.261Z,94.31
2023-05-06T07:27:13.125Z,94.12
2023-05-06T07:28:16.419Z,94.11
2023-05-06T07:29:50.978Z,93.97
2023-05-06T07:30:53.974Z,93.08
2023-05-06T07:31:57.161Z,93.23
2023-05-06T07:33:32.043Z,93.42
2023-05-06T07:34:34.951Z,93.42
2023-05-06T07:35:38.093Z,92.56
2023-05-06T07:37:12.691Z,93.33
2023-05-06T07:38:15.669Z,92.74
2023-05-06T07:39:18.528Z,92.98
2023-05-06T07:40:53.144Z,92.91
2023-05-06T07:41:55.931Z,92.91
2023-05-06T07:42:58.752Z,93.09
2023-05-06T07:44:33.480Z,93.11
2023-05-06T07:45:36.558Z,93.25
2023-05-06T07:46:39.859Z,93.21
2023-05-06T07:48:16.942Z,93.25
2023-05-06T07:49:21.001Z,93.37
2023-05-06T07:50:24.018Z,92.94
2023-05-06T07:51:59.322Z,93.26
2023-05-06T07:53:02.335Z,93.02
2023-05-06T07:54:05.248Z,92.95
2023-05-06T07:55:40.977Z,92.86
2023-05-06T07:56:43.686Z,91.25
2023-05-06T07:57:46.507Z,91.63
2023-05-06T07:59:21.327Z,92.02
2023-05-06T08:00:17.934Z,91.75
2023-05-06T08:01:20.867Z,91.92
2023-05-06T08:02:23.972Z,91.60
2023-05-06T08:03:59.917Z,91.42
2023-05-06T08:05:03.804Z,90.98
2023-05-06T08:06:07.230Z,91.06
2023-05-06T08:07:42.307Z,91.09
2023-05-06T08:08:45.208Z,91.17
2023-05-06T08:09:48.111Z,91.38
2023-05-06T08:11:25.118Z,90.86
2023-05-06T08:12:28.031Z,90.72
2023-05-06T08:13:31.409Z,90.51
2023-05-06T08:15:06.057Z,89.38
2023-05-06T08:16:09.336Z,88.60
2023-05-06T08:17:14.988Z,89.01
2023-05-06T08:19:03.141Z,87.26
2023-05-06T08:20:06.098Z,87.98
2023-05-06T08:21:09.203Z,87.08
2023-05-06T08:22:44.320Z,87.31
2023-05-06T08:23:47.440Z,87.00
2023-05-06T08:24:50.410Z,86.60
2023-05-06T08:26:25.723Z,86.62
2023-05-06T08:27:28.601Z,86.08
2023-05-06T08:28:31.414Z,85.33
2023-05-06T08:30:06.092Z,86.27
2023-05-06T08:31:09.049Z,86.21
2023-05-06T08:32:12.565Z,85.58
2023-05-06T08:33:47.638Z,85.35
2023-05-06T08:34:52.205Z,85.18
2023-05-06T08:35:55.685Z,85.03
2023-05-06T08:37:30.725Z,84.96
2023-05-06T08:38:33.733Z,85.60
2023-05-06T08:39:36.804Z,85.35
2023-05-06T08:41:12.625Z,84.34
2023-05-06T08:42:15.754Z,84.44
2023-05-06T08:43:18.674Z,83.78
2023-05-06T08:44:53.273Z,82.99
2023-05-06T08:45:56.579Z,82.23
2023-05-06T08:47:00.036Z,82.43
2023-05-06T08:48:34.671Z,82.50
2023-05-06T08:49:37.582Z,82.55
2023-05-06T08:50:40.393Z,82.50
2023-05-06T08:52:15.057Z,83.15
2023-05-06T08:53:18.160Z,84.06
2023-05-06T08:54:21.050Z,83.86
2023-05-06T08:55:55.778Z,81.30
2023-05-06T08:56:58.730Z,81.88
2023-05-06T08:58:04.170Z,82.39
2023-05-06T08:59:38.991Z,82.15
2023-05-06T09:01:20.615Z,81.61
2023-05-06T09:02:24.353Z,80.65
2023-05-06T09:04:01.707Z,81.01
2023-05-06T09:05:04.835Z,80.40
2023-05-06T09:06:08.519Z,79.93
2023-05-06T09:07:43.337Z,81.74
2023-05-06T09:08:46.113Z,82.12
2023-05-06T09:09:49.093Z,81.48
2023-05-06T09:11:24.314Z,79.73
2023-05-06T09:12:27.282Z,77.76
2023-05-06T09:13:30.374Z,77.36
2023-05-06T09:15:05.184Z,79.26
2023-05-06T09:16:08.740Z,78.71
2023-05-06T09:17:12.098Z,78.45
2023-05-06T09:18:47.371Z,79.37
2023-05-06T09:19:50.227Z,79.20
2023-05-06T09:20:53.275Z,78.51
2023-05-06T09:22:30.291Z,76.49
2023-05-06T09:23:33.180Z,79.38
2023-05-06T09:24:36.069Z,77.18
2023-05-06T09:26:10.860Z,77.06
2023-05-06T09:27:16.305Z,77.85
2023-05-06T09:28:19.416Z,77.44
2023-05-06T09:29:54.668Z,77.55
2023-05-06T09:30:57.851Z,76.11
2023-05-06T09:32:01.195Z,74.48
2023-05-06T09:33:36.501Z,75.20
2023-05-06T09:34:39.448Z,75.89
2023-05-06T09:35:42.412Z,75.87
2023-05-06T09:37:17.013Z,75.34
2023-05-06T09:38:20.012Z,74.43
2023-05-06T09:39:23.046Z,74.19
2023-05-06T09:40:57.655Z,73.98
2023-05-06T09:42:00.741Z,75.29
2023-05-06T09:43:03.739Z,76.28
2023-05-06T09:44:38.918Z,74.42
2023-05-06T09:45:42.958Z,73.77
2023-05-06T09:46:46.627Z,73.36
2023-05-06T09:48:21.737Z,73.46
2023-05-06T09:49:24.760Z,74.37
2023-05-06T09:50:27.873Z,73.66
2023-05-06T09:52:02.811Z,71.64
2023-05-06T09:53:05.680Z,71.71
2023-05-06T09:54:08.639Z,71.98
2023-05-06T09:55:43.635Z,72.52
2023-05-06T09:56:46.632Z,72.21
2023-05-06T09:57:52.495Z,72.68
2023-05-06T09:59:27.209Z,70.84
2023-05-06T10:01:36.878Z,72.32
2023-05-06T10:02:42.014Z,73.73
2023-05-06T10:04:19.230Z,71.38
2023-05-06T10:05:25.197Z,72.03
2023-05-06T10:06:29.092Z,70.44
2023-05-06T10:08:04.170Z,71.26
2023-05-06T10:09:07.270Z,72.82
2023-05-06T10:10:10.184Z,73.68
2023-05-06T10:11:47.828Z,72.70
2023-05-06T10:12:50.723Z,69.82
2023-05-06T10:13:53.995Z,69.14
2023-05-06T10:15:28.947Z,69.12
2023-05-06T10:16:32.343Z,69.50
2023-05-06T10:17:35.631Z,70.39
2023-05-06T10:19:11.160Z,67.85
2023-05-06T10:20:14.366Z,69.23
2023-05-06T10:21:17.295Z,69.14
2023-05-06T10:22:52.031Z,69.58
2023-05-06T10:23:55.423Z,69.91
2023-05-06T10:24:58.529Z,70.51
2023-05-06T10:26:33.664Z,69.21
2023-05-06T10:27:36.480Z,69.55
2023-05-06T10:28:41.408Z,68.83
2023-05-06T10:30:16.275Z,69.11
2023-05-06T10:31:19.919Z,68.37
2023-05-06T10:32:23.457Z,68.77
2023-05-06T10:33:58.663Z,68.17
2023-05-06T10:35:01.748Z,69.98
2023-05-06T10:36:05.108Z,69.15
2023-05-06T10:37:39.929Z,70.48
2023-05-06T10:38:43.141Z,70.11
2023-05-06T10:39:48.115Z,67.27
2023-05-06T10:41:23.056Z,66.26
2023-05-06T10:42:25.909Z,65.77
2023-05-06T10:43:28.961Z,65.75
2023-05-06T10:45:04.089Z,66.65
2023-05-06T10:46:07.633Z,66.75
2023-05-06T10:47:10.949Z,66.54
2023-05-06T10:48:45.888Z,67.23
2023-05-06T10:49:48.978Z,67.36
2023-05-06T10:50:52.540Z,67.49
2023-05-06T10:52:27.535Z,64.98
2023-05-06T10:53:30.488Z,64.14
2023-05-06T10:54:33.598Z,65.01
2023-05-06T10:56:09.059Z,64.17
2023-05-06T10:57:12.394Z,62.41
2023-05-06T10:58:15.596Z,63.87
2023-05-06T10:59:50.387Z,64.03
2023-05-06T11:00:17.807Z,62.71
2023-05-06T11:01:20.650Z,63.91
2023-05-06T11:02:24.557Z,65.38
2023-05-06T11:04:03.418Z,67.39
2023-05-06T11:05:06.260Z,65.57
2023-05-06T11:06:09.541Z,65.50
2023-05-06T11:07:44.718Z,66.20
2023-05-06T11:08:47.866Z,63.07
2023-05-06T11:09:50.926Z,64.47
2023-05-06T11:11:26.100Z,62.62
2023-05-06T11:12:29.196Z,64.56
2023-05-06T11:13:32.741Z,62.78
2023-05-06T11:15:08.729Z,63.09
2023-05-06T11:16:11.830Z,63.28
2023-05-06T11:17:16.263Z,61.74
2023-05-06T11:18:51.273Z,60.68
2023-05-06T11:19:54.039Z,61.43
2023-05-06T11:20:57.463Z,61.81
2023-05-06T11:22:32.660Z,60.69
2023-05-06T11:23:35.630Z,61.31
2023-05-06T11:24:38.976Z,59.81
2023-05-06T11:26:13.700Z,62.49
2023-05-06T11:27:16.898Z,62.03
2023-05-06T11:28:19.989Z,63.26
2023-05-06T11:29:55.024Z,63.44
2023-05-06T11:30:58.576Z,63.11
2023-05-06T11:32:01.896Z,62.08
2023-05-06T11:33:37.051Z,62.96
2023-05-06T11:34:39.855Z,63.21
2023-05-06T11:35:42.760Z,62.31
2023-05-06T11:37:17.670Z,62.98
2023-05-06T11:38:20.846Z,61.65
2023-05-06T11:39:23.739Z,63.52
2023-05-06T11:41:04.697Z,60.31
2023-05-06T11:42:07.888Z,61.52
2023-05-06T11:43:11.060Z,61.14
2023-05-06T11:44:46.447Z,63.38
2023-05-06T11:45:49.743Z,61.75
2023-05-06T11:46:53.116Z,60.12
2023-05-06T11:48:28.369Z,58.96
2023-05-06T11:49:31.374Z,59.84
2023-05-06T11:50:34.426Z,60.99
2023-05-06T11:52:09.180Z,59.74
2023-05-06T11:53:12.176Z,59.51
2023-05-06T11:54:15.159Z,60.16
2023-05-06T11:55:49.868Z,57.43
2023-05-06T11:56:52.985Z,58.39
2023-05-06T11:57:55.885Z,57.64
2023-05-06T11:59:30.797Z,57.03
2023-05-06T12:01:20.733Z,59.83
2023-05-06T12:02:24.099Z,57.11
2023-05-06T12:04:00.424Z,56.94
2023-05-06T12:05:04.470Z,56.73
2023-05-06T12:06:07.486Z,57.65
2023-05-06T12:07:42.806Z,60.02
2023-05-06T12:09:00.424Z,60.09
2023-05-06T12:10:03.627Z,59.08
2023-05-06T12:11:38.951Z,59.64
2023-05-06T12:12:42.764Z,61.16
2023-05-06T12:13:46.027Z,58.51
2023-05-06T12:15:20.848Z,58.99
2023-05-06T12:16:24.211Z,60.04
2023-05-06T12:17:27.917Z,59.39
2023-05-06T12:19:03.183Z,59.56
2023-05-06T12:20:06.216Z,57.75
2023-05-06T12:21:09.635Z,57.03
2023-05-06T12:22:44.768Z,57.01
2023-05-06T12:23:47.775Z,59.03
2023-05-06T12:24:51.223Z,59.46
2023-05-06T12:26:26.578Z,59.87
2023-05-06T12:27:29.383Z,60.05
2023-05-06T12:28:32.413Z,59.06
2023-05-06T12:30:07.294Z,57.25
2023-05-06T12:31:10.823Z,57.08
2023-05-06T12:32:14.347Z,58.33
2023-05-06T12:33:49.663Z,57.83
2023-05-06T12:34:55.572Z,57.57
2023-05-06T12:35:58.599Z,57.77
2023-05-06T12:37:33.321Z,58.13
2023-05-06T12:38:36.313Z,57.28
2023-05-06T12:39:39.539Z,55.83
2023-05-06T12:41:17.080Z,57.40
2023-05-06T12:42:19.915Z,57.60
2023-05-06T12:43:23.208Z,56.51
2023-05-06T12:44:58.173Z,54.99
2023-05-06T12:46:03.774Z,57.40
2023-05-06T12:47:07.042Z,57.34
2023-05-06T12:48:42.131Z,55.57
2023-05-06T12:49:45.081Z,55.64
2023-05-06T12:50:48.115Z,54.88
2023-05-06T12:52:23.145Z,55.32
2023-05-06T12:53:26.323Z,55.96
2023-05-06T12:54:29.590Z,57.51
2023-05-06T12:56:04.602Z,57.89
2023-05-06T12:57:07.600Z,57.19
2023-05-06T12:58:10.697Z,55.39
2023-05-06T12:59:45.327Z,56.19
2023-05-06T13:00:18.491Z,56.19
2023-05-06T13:01:21.479Z,55.52
2023-05-06T13:02:24.968Z,52.77
2023-05-06T13:04:00.816Z,54.67
2023-05-06T13:05:03.725Z,53.65
2023-05-06T13:06:06.849Z,54.45
2023-05-06T13:07:41.948Z,53.82
2023-05-06T13:08:45.237Z,53.30
2023-05-06T13:09:48.512Z,54.01
2023-05-06T13:11:24.643Z,54.90
2023-05-06T13:12:27.781Z,53.08
2023-05-06T13:13:31.494Z,53.24
2023-05-06T13:15:06.389Z,53.82
2023-05-06T13:16:09.289Z,53.90
2023-05-06T13:17:13.088Z,53.39
2023-05-06T13:18:48.287Z,52.69
2023-05-06T13:20:12.146Z,53.55
2023-05-06T13:21:15.440Z,53.49
2023-05-06T13:23:00.296Z,54.18
2023-05-06T13:24:03.476Z,53.55
2023-05-06T13:25:06.576Z,54.33
2023-05-06T13:26:46.371Z,55.68
2023-05-06T13:27:49.593Z,53.68
2023-05-06T13:28:52.604Z,53.83
2023-05-06T13:30:27.739Z,54.94
2023-05-06T13:31:31.161Z,53.78
2023-05-06T13:32:34.507Z,54.09
2023-05-06T13:34:09.702Z,54.08
2023-05-06T13:35:12.922Z,52.79
2023-05-06T13:36:15.933Z,53.06
2023-05-06T13:37:50.833Z,52.08
2023-05-06T13:38:53.934Z,52.90
2023-05-06T13:39:57.029Z,53.11
2023-05-06T13:41:32.313Z,52.87
2023-05-06T13:42:35.433Z,50.62
2023-05-06T13:43:38.585Z,51.66
2023-05-06T13:45:13.535Z,52.78
2023-05-06T13:46:16.933Z,53.22
2023-05-06T13:47:20.319Z,51.23
2023-05-06T13:48:55.691Z,52.58
2023-05-06T13:49:58.792Z,49.55
2023-05-06T13:51:02.229Z,52.09
2023-05-06T13:52:36.902Z,53.17
2023-05-06T13:53:39.869Z,54.24
2023-05-06T13:54:43.044Z,53.83
2023-05-06T13:56:18.154Z,53.57
2023-05-06T13:57:21.164Z,52.01
2023-05-06T13:58:24.351Z,50.81
2023-05-06T14:00:00.454Z,51.37
2023-05-06T14:00:17.885Z,51.37
2023-05-06T14:01:21.210Z,53.42
2023-05-06T14:02:24.903Z,53.58
2023-05-06T14:04:00.766Z,53.81
2023-05-06T14:05:04.252Z,52.76
2023-05-06T14:06:08.657Z,52.31
2023-05-06T14:07:46.272Z,50.99
2023-05-06T14:08:49.348Z,51.70
2023-05-06T14:09:52.495Z,52.77
2023-05-06T14:11:27.195Z,52.66
2023-05-06T14:12:30.222Z,50.94
2023-05-06T14:13:33.538Z,52.07
2023-05-06T14:15:08.479Z,52.88
2023-05-06T14:16:11.818Z,52.24
2023-05-06T14:17:15.450Z,52.27
2023-05-06T14:18:50.876Z,50.78
2023-05-06T14:19:54.134Z,49.91
2023-05-06T14:20:57.646Z,48.42
2023-05-06T14:22:32.902Z,50.77
2023-05-06T14:23:36.309Z,49.52
2023-05-06T14:24:39.500Z,49.86
2023-05-06T14:26:14.335Z,50.92
2023-05-06T14:27:17.610Z,49.71
2023-05-06T14:28:20.901Z,50.26
2023-05-06T14:29:55.896Z,51.17
2023-05-06T14:31:01.601Z,51.80
2023-05-06T14:32:04.915Z,48.29
2023-05-06T14:33:39.990Z,48.59
2023-05-06T14:34:43.496Z,47.81
2023-05-06T14:35:46.758Z,48.62
2023-05-06T14:37:21.755Z,48.81
2023-05-06T14:38:25.035Z,50.45
2023-05-06T14:39:28.514Z,49.87
2023-05-06T14:41:05.355Z,48.77
2023-05-06T14:42:08.386Z,48.44
2023-05-06T14:43:11.517Z,48.73
2023-05-06T14:44:46.159Z,49.11
2023-05-06T14:45:49.485Z,49.47
2023-05-06T14:46:53.241Z,48.79
2023-05-06T14:48:28.684Z,47.79
2023-05-06T14:49:31.791Z,48.94
2023-05-06T14:50:35.056Z,49.40
2023-05-06T14:52:10.494Z,48.15
2023-05-06T14:53:13.763Z,48.60
2023-05-06T14:54:16.956Z,48.41
2023-05-06T14:55:52.542Z,49.69
2023-05-06T14:56:55.684Z,49.07
2023-05-06T14:57:58.859Z,48.96
2023-05-06T14:59:33.892Z,49.95
2023-05-06T15:01:20.766Z,51.74
2023-05-06T15:02:23.963Z,51.36
2023-05-06T15:03:59.296Z,51.69
2023-05-06T15:05:07.507Z,51.27
2023-05-06T15:06:11.881Z,52.72
2023-05-06T15:07:47.342Z,52.37
2023-05-06T15:08:50.479Z,52.66
2023-05-06T15:09:53.798Z,51.96
2023-05-06T15:11:28.864Z,52.58
2023-05-06T15:12:31.934Z,52.56
2023-05-06T15:13:35.527Z,52.85
2023-05-06T15:15:11.580Z,53.75
2023-05-06T15:16:17.263Z,53.80
2023-05-06T15:17:20.613Z,54.75
2023-05-06T15:18:55.790Z,54.82
2023-05-06T15:19:58.846Z,55.29
2023-05-06T15:21:01.889Z,55.05
2023-05-06T15:22:39.285Z,54.81
2023-05-06T15:23:43.056Z,52.23
2023-05-06T15:24:46.164Z,51.33
2023-05-06T15:26:29.092Z,53.25
2023-05-06T15:27:32.363Z,52.61
2023-05-06T15:28:35.503Z,53.81
2023-05-06T15:30:10.548Z,52.91
2023-05-06T15:31:13.616Z,54.74
2023-05-06T15:32:16.912Z,55.02
2023-05-06T15:33:52.295Z,55.88
2023-05-06T15:34:58.126Z,55.25
2023-05-06T15:36:01.514Z,55.31
2023-05-06T15:37:36.538Z,54.75
2023-05-06T15:38:39.730Z,54.91
2023-05-06T15:39:46.309Z,56.38
2023-05-06T15:41:21.861Z,55.53
2023-05-06T15:42:24.959Z,54.15
2023-05-06T15:43:37.642Z,54.77
2023-05-06T15:45:14.996Z,54.09
2023-05-06T15:46:18.175Z,54.91
2023-05-06T15:47:21.736Z,54.61
2023-05-06T15:49:47.237Z,54.10
2023-05-06T15:51:12.014Z,54.22
2023-05-06T15:52:14.937Z,55.25
2023-05-06T15:53:49.721Z,55.77
2023-05-06T15:54:59.727Z,56.24
2023-05-06T15:56:22.290Z,55.99
2023-05-06T15:58:06.832Z,55.58
2023-05-06T15:59:10.134Z,55.09